sensor_id;sensor_type;location;lat;lon;timestamp;P1;durP1;ratioP1;P2;durP2;ratioP2
14736;SDS011;7459;53.590;10.062;2022-09-19T00:01:20;1.53;;;0.20;;
14736;SDS011;7459;53.590;10.062;2022-09-19T00:03:53;0.70;;;0.20;;
14736;SDS011;7459;53.590;10.062;2022-09-19T00:06:22;1.80;;;0.50;;
14736;SDS011;7459;53.590;10.062;2022-09-19T00:08:51;2.13;;;0.40;;
14736;SDS011;7459;53.590;10.062;2022-09-19T00:11:18;3.45;;;0.50;;
14736;SDS011;7459;53.590;10.062;2022-09-19T00:13:46;1.20;;;0.37;;
14736;SDS011;7459;53.590;10.062;2022-09-19T00:16:21;1.15;;;0.20;;
14736;SDS011;7459;53.590;10.062;2022-09-19T00:18:50;2.72;;;0.35;;
14736;SDS011;7459;53.590;10.062;2022-09-19T00:21:21;3.40;;;0.40;;
14736;SDS011;7459;53.590;10.062;2022-09-19T00:23:57;2.70;;;0.47;;
14736;SDS011;7459;53.590;10.062;2022-09-19T00:26:42;1.17;;;0.20;;
14736;SDS011;7459;53.590;10.062;2022-09-19T00:29:10;1.00;;;0.20;;
14736;SDS011;7459;53.590;10.062;2022-09-19T00:31:37;2.38;;;0.60;;
14736;SDS011;7459;53.590;10.062;2022-09-19T00:34:03;3.13;;;0.30;;
14736;SDS011;7459;53.590;10.062;2022-09-19T00:36:31;2.70;;;0.40;;
14736;SDS011;7459;53.590;10.062;2022-09-19T00:39:02;1.05;;;0.20;;
14736;SDS011;7459;53.590;10.062;2022-09-19T00:41:30;1.17;;;0.65;;
14736;SDS011;7459;53.590;10.062;2022-09-19T00:43:58;4.55;;;0.55;;
14736;SDS011;7459;53.590;10.062;2022-09-19T00:46:28;2.40;;;0.40;;
14736;SDS011;7459;53.590;10.062;2022-09-19T00:49:01;2.23;;;0.40;;
14736;SDS011;7459;53.590;10.062;2022-09-19T00:51:37;1.30;;;0.43;;
14736;SDS011;7459;53.590;10.062;2022-09-19T00:54:23;1.45;;;0.30;;
14736;SDS011;7459;53.590;10.062;2022-09-19T00:56:54;2.42;;;0.55;;
14736;SDS011;7459;53.590;10.062;2022-09-19T00:59:22;3.55;;;1.10;;
14736;SDS011;7459;53.590;10.062;2022-09-19T01:01:52;1.73;;;0.57;;
14736;SDS011;7459;53.590;10.062;2022-09-19T01:04:21;3.60;;;0.60;;
14736;SDS011;7459;53.590;10.062;2022-09-19T01:06:56;2.15;;;0.55;;
14736;SDS011;7459;53.590;10.062;2022-09-19T01:15:21;1.50;;;0.40;;
14736;SDS011;7459;53.590;10.062;2022-09-19T01:18:15;1.30;;;0.47;;
14736;SDS011;7459;53.590;10.062;2022-09-19T01:29:41;2.40;;;0.60;;
14736;SDS011;7459;53.590;10.062;2022-09-19T01:32:16;2.25;;;0.50;;
14736;SDS011;7459;53.590;10.062;2022-09-19T01:34:48;2.15;;;0.52;;
14736;SDS011;7459;53.590;10.062;2022-09-19T01:37:25;1.67;;;0.40;;
14736;SDS011;7459;53.590;10.062;2022-09-19T01:39:57;3.72;;;0.75;;
14736;SDS011;7459;53.590;10.062;2022-09-19T01:42:26;2.73;;;0.70;;
14736;SDS011;7459;53.590;10.062;2022-09-19T01:44:52;2.10;;;0.63;;
14736;SDS011;7459;53.590;10.062;2022-09-19T01:57:55;3.05;;;0.70;;
14736;SDS011;7459;53.590;10.062;2022-09-19T02:03:21;3.17;;;0.70;;
14736;SDS011;7459;53.590;10.062;2022-09-19T02:06:37;2.60;;;0.80;;
14736;SDS011;7459;53.590;10.062;2022-09-19T02:09:28;4.93;;;0.83;;
14736;SDS011;7459;53.590;10.062;2022-09-19T02:12:14;4.43;;;0.82;;
14736;SDS011;7459;53.590;10.062;2022-09-19T02:14:43;2.17;;;0.57;;
14736;SDS011;7459;53.590;10.062;2022-09-19T02:17:20;2.28;;;1.13;;
14736;SDS011;7459;53.590;10.062;2022-09-19T02:19:52;2.50;;;0.93;;
14736;SDS011;7459;53.590;10.062;2022-09-19T02:22:30;4.03;;;1.23;;
14736;SDS011;7459;53.590;10.062;2022-09-19T02:25:03;3.20;;;0.98;;
14736;SDS011;7459;53.590;10.062;2022-09-19T02:27:43;3.28;;;0.73;;
14736;SDS011;7459;53.590;10.062;2022-09-19T02:30:15;4.90;;;0.75;;
14736;SDS011;7459;53.590;10.062;2022-09-19T02:32:45;2.17;;;0.52;;
14736;SDS011;7459;53.590;10.062;2022-09-19T02:35:18;5.33;;;1.07;;
14736;SDS011;7459;53.590;10.062;2022-09-19T02:37:49;3.80;;;0.43;;
14736;SDS011;7459;53.590;10.062;2022-09-19T02:43:37;2.17;;;0.50;;
14736;SDS011;7459;53.590;10.062;2022-09-19T02:46:16;2.78;;;0.50;;
14736;SDS011;7459;53.590;10.062;2022-09-19T02:49:19;3.50;;;0.47;;
14736;SDS011;7459;53.590;10.062;2022-09-19T02:51:57;1.75;;;0.50;;
14736;SDS011;7459;53.590;10.062;2022-09-19T02:54:31;3.92;;;1.25;;
14736;SDS011;7459;53.590;10.062;2022-09-19T02:57:01;2.15;;;0.52;;
14736;SDS011;7459;53.590;10.062;2022-09-19T02:59:36;1.95;;;0.40;;
14736;SDS011;7459;53.590;10.062;2022-09-19T03:02:07;2.70;;;0.60;;
14736;SDS011;7459;53.590;10.062;2022-09-19T03:04:47;1.60;;;0.40;;
14736;SDS011;7459;53.590;10.062;2022-09-19T03:07:21;3.22;;;0.88;;
14736;SDS011;7459;53.590;10.062;2022-09-19T03:10:15;4.25;;;1.02;;
14736;SDS011;7459;53.590;10.062;2022-09-19T03:12:52;2.08;;;0.45;;
14736;SDS011;7459;53.590;10.062;2022-09-19T03:15:28;1.97;;;1.20;;
14736;SDS011;7459;53.590;10.062;2022-09-19T03:18:12;5.15;;;0.60;;
14736;SDS011;7459;53.590;10.062;2022-09-19T03:20:46;3.28;;;0.73;;
14736;SDS011;7459;53.590;10.062;2022-09-19T03:23:28;2.50;;;0.93;;
14736;SDS011;7459;53.590;10.062;2022-09-19T03:26:22;2.35;;;0.70;;
14736;SDS011;7459;53.590;10.062;2022-09-19T03:28:52;3.50;;;0.40;;
14736;SDS011;7459;53.590;10.062;2022-09-19T03:31:20;3.72;;;0.63;;
14736;SDS011;7459;53.590;10.062;2022-09-19T03:33:47;1.92;;;0.90;;
14736;SDS011;7459;53.590;10.062;2022-09-19T03:36:13;1.45;;;0.38;;
14736;SDS011;7459;53.590;10.062;2022-09-19T03:38:40;2.55;;;0.50;;
14736;SDS011;7459;53.590;10.062;2022-09-19T03:41:10;2.43;;;0.77;;
14736;SDS011;7459;53.590;10.062;2022-09-19T03:43:37;2.38;;;0.57;;
14736;SDS011;7459;53.590;10.062;2022-09-19T03:46:03;4.07;;;1.15;;
14736;SDS011;7459;53.590;10.062;2022-09-19T03:48:29;2.33;;;0.73;;
14736;SDS011;7459;53.590;10.062;2022-09-19T03:50:57;2.83;;;0.80;;
14736;SDS011;7459;53.590;10.062;2022-09-19T03:53:25;2.63;;;0.80;;
14736;SDS011;7459;53.590;10.062;2022-09-19T03:55:52;3.35;;;0.70;;
14736;SDS011;7459;53.590;10.062;2022-09-19T03:58:17;4.87;;;0.90;;
14736;SDS011;7459;53.590;10.062;2022-09-19T04:00:43;2.42;;;0.82;;
14736;SDS011;7459;53.590;10.062;2022-09-19T04:03:09;3.35;;;1.00;;
14736;SDS011;7459;53.590;10.062;2022-09-19T04:05:35;2.70;;;1.27;;
14736;SDS011;7459;53.590;10.062;2022-09-19T04:08:01;2.78;;;0.75;;
14736;SDS011;7459;53.590;10.062;2022-09-19T04:10:27;3.90;;;0.93;;
14736;SDS011;7459;53.590;10.062;2022-09-19T04:12:52;3.00;;;1.50;;
14736;SDS011;7459;53.590;10.062;2022-09-19T04:15:18;2.80;;;1.10;;
14736;SDS011;7459;53.590;10.062;2022-09-19T04:17:44;3.20;;;1.07;;
14736;SDS011;7459;53.590;10.062;2022-09-19T04:20:11;2.80;;;0.88;;
14736;SDS011;7459;53.590;10.062;2022-09-19T04:22:37;2.63;;;1.13;;
14736;SDS011;7459;53.590;10.062;2022-09-19T04:25:04;3.47;;;0.50;;
14736;SDS011;7459;53.590;10.062;2022-09-19T04:27:34;3.95;;;0.88;;
14736;SDS011;7459;53.590;10.062;2022-09-19T04:30:00;4.37;;;1.70;;
14736;SDS011;7459;53.590;10.062;2022-09-19T04:32:25;2.42;;;0.80;;
14736;SDS011;7459;53.590;10.062;2022-09-19T04:34:52;4.03;;;1.30;;
14736;SDS011;7459;53.590;10.062;2022-09-19T04:37:20;5.22;;;1.40;;
14736;SDS011;7459;53.590;10.062;2022-09-19T04:39:47;4.87;;;1.00;;
14736;SDS011;7459;53.590;10.062;2022-09-19T04:42:13;6.80;;;1.77;;
14736;SDS011;7459;53.590;10.062;2022-09-19T04:44:40;3.67;;;1.45;;
14736;SDS011;7459;53.590;10.062;2022-09-19T04:47:06;5.03;;;0.97;;
14736;SDS011;7459;53.590;10.062;2022-09-19T04:49:32;7.57;;;1.33;;
14736;SDS011;7459;53.590;10.062;2022-09-19T04:52:03;4.95;;;1.33;;
14736;SDS011;7459;53.590;10.062;2022-09-19T04:54:30;3.95;;;0.95;;
14736;SDS011;7459;53.590;10.062;2022-09-19T04:57:01;3.50;;;1.30;;
14736;SDS011;7459;53.590;10.062;2022-09-19T04:59:30;3.73;;;0.77;;
14736;SDS011;7459;53.590;10.062;2022-09-19T05:01:56;2.83;;;0.50;;
14736;SDS011;7459;53.590;10.062;2022-09-19T05:04:23;4.10;;;0.60;;
14736;SDS011;7459;53.590;10.062;2022-09-19T05:06:51;3.08;;;0.82;;
14736;SDS011;7459;53.590;10.062;2022-09-19T05:09:17;4.50;;;1.50;;
14736;SDS011;7459;53.590;10.062;2022-09-19T05:11:43;4.85;;;0.95;;
14736;SDS011;7459;53.590;10.062;2022-09-19T05:14:12;3.95;;;1.10;;
14736;SDS011;7459;53.590;10.062;2022-09-19T05:16:39;3.60;;;0.77;;
14736;SDS011;7459;53.590;10.062;2022-09-19T05:19:07;5.15;;;1.10;;
14736;SDS011;7459;53.590;10.062;2022-09-19T05:21:33;4.13;;;1.37;;
14736;SDS011;7459;53.590;10.062;2022-09-19T05:24:00;6.20;;;1.25;;
14736;SDS011;7459;53.590;10.062;2022-09-19T05:26:26;6.18;;;1.08;;
14736;SDS011;7459;53.590;10.062;2022-09-19T05:28:53;4.97;;;1.40;;
14736;SDS011;7459;53.590;10.062;2022-09-19T05:31:18;6.30;;;1.30;;
14736;SDS011;7459;53.590;10.062;2022-09-19T05:33:45;6.43;;;1.50;;
14736;SDS011;7459;53.590;10.062;2022-09-19T05:36:11;6.05;;;1.20;;
14736;SDS011;7459;53.590;10.062;2022-09-19T05:38:38;7.28;;;1.27;;
14736;SDS011;7459;53.590;10.062;2022-09-19T05:41:04;8.30;;;1.10;;
14736;SDS011;7459;53.590;10.062;2022-09-19T05:43:30;3.95;;;0.50;;
14736;SDS011;7459;53.590;10.062;2022-09-19T05:45:57;6.18;;;0.85;;
14736;SDS011;7459;53.590;10.062;2022-09-19T05:48:24;6.68;;;0.90;;
14736;SDS011;7459;53.590;10.062;2022-09-19T05:50:51;11.70;;;1.38;;
14736;SDS011;7459;53.590;10.062;2022-09-19T05:53:19;10.23;;;1.40;;
14736;SDS011;7459;53.590;10.062;2022-09-19T05:56:04;7.43;;;0.75;;
14736;SDS011;7459;53.590;10.062;2022-09-19T05:58:32;7.40;;;1.42;;
14736;SDS011;7459;53.590;10.062;2022-09-19T06:01:07;5.75;;;1.52;;
14736;SDS011;7459;53.590;10.062;2022-09-19T06:03:34;10.13;;;1.52;;
14736;SDS011;7459;53.590;10.062;2022-09-19T06:06:04;5.00;;;0.70;;
14736;SDS011;7459;53.590;10.062;2022-09-19T06:08:37;8.73;;;1.85;;
14736;SDS011;7459;53.590;10.062;2022-09-19T06:11:07;5.40;;;0.60;;
14736;SDS011;7459;53.590;10.062;2022-09-19T06:13:34;8.82;;;1.67;;
14736;SDS011;7459;53.590;10.062;2022-09-19T06:16:19;11.38;;;1.17;;
14736;SDS011;7459;53.590;10.062;2022-09-19T06:18:45;8.70;;;0.67;;
14736;SDS011;7459;53.590;10.062;2022-09-19T06:21:11;4.80;;;1.52;;
14736;SDS011;7459;53.590;10.062;2022-09-19T06:23:37;7.70;;;1.55;;
14736;SDS011;7459;53.590;10.062;2022-09-19T06:26:04;8.55;;;1.40;;
14736;SDS011;7459;53.590;10.062;2022-09-19T06:28:30;5.90;;;1.13;;
14736;SDS011;7459;53.590;10.062;2022-09-19T06:30:59;6.13;;;1.15;;
14736;SDS011;7459;53.590;10.062;2022-09-19T06:33:29;7.43;;;1.33;;
14736;SDS011;7459;53.590;10.062;2022-09-19T06:35:58;4.90;;;0.60;;
14736;SDS011;7459;53.590;10.062;2022-09-19T06:38:25;8.07;;;1.20;;
14736;SDS011;7459;53.590;10.062;2022-09-19T06:40:56;9.93;;;0.98;;
14736;SDS011;7459;53.590;10.062;2022-09-19T06:43:21;7.63;;;1.35;;
14736;SDS011;7459;53.590;10.062;2022-09-19T06:45:47;9.10;;;1.40;;
14736;SDS011;7459;53.590;10.062;2022-09-19T06:48:13;9.88;;;1.45;;
14736;SDS011;7459;53.590;10.062;2022-09-19T06:50:39;14.10;;;1.73;;
14736;SDS011;7459;53.590;10.062;2022-09-19T06:53:10;8.45;;;1.40;;
14736;SDS011;7459;53.590;10.062;2022-09-19T06:55:35;11.43;;;1.75;;
14736;SDS011;7459;53.590;10.062;2022-09-19T06:58:02;12.83;;;1.90;;
14736;SDS011;7459;53.590;10.062;2022-09-19T07:00:31;10.60;;;0.93;;
14736;SDS011;7459;53.590;10.062;2022-09-19T07:03:06;10.18;;;1.27;;
14736;SDS011;7459;53.590;10.062;2022-09-19T07:05:35;10.45;;;1.45;;
14736;SDS011;7459;53.590;10.062;2022-09-19T07:08:04;10.63;;;1.50;;
14736;SDS011;7459;53.590;10.062;2022-09-19T07:10:30;7.13;;;1.10;;
14736;SDS011;7459;53.590;10.062;2022-09-19T07:12:57;11.13;;;1.08;;
14736;SDS011;7459;53.590;10.062;2022-09-19T07:15:36;7.82;;;1.13;;
14736;SDS011;7459;53.590;10.062;2022-09-19T07:18:03;8.07;;;1.42;;
14736;SDS011;7459;53.590;10.062;2022-09-19T07:20:33;7.65;;;1.33;;
14736;SDS011;7459;53.590;10.062;2022-09-19T07:23:02;10.83;;;1.30;;
14736;SDS011;7459;53.590;10.062;2022-09-19T07:25:30;12.50;;;2.55;;
14736;SDS011;7459;53.590;10.062;2022-09-19T07:28:01;10.82;;;1.30;;
14736;SDS011;7459;53.590;10.062;2022-09-19T07:30:30;6.95;;;1.70;;
14736;SDS011;7459;53.590;10.062;2022-09-19T07:32:58;9.93;;;1.08;;
14736;SDS011;7459;53.590;10.062;2022-09-19T07:35:29;13.93;;;1.73;;
14736;SDS011;7459;53.590;10.062;2022-09-19T07:38:00;10.55;;;1.30;;
14736;SDS011;7459;53.590;10.062;2022-09-19T07:40:27;13.10;;;1.35;;
14736;SDS011;7459;53.590;10.062;2022-09-19T07:42:59;13.70;;;1.77;;
14736;SDS011;7459;53.590;10.062;2022-09-19T07:45:31;9.70;;;1.52;;
14736;SDS011;7459;53.590;10.062;2022-09-19T07:47:58;12.60;;;1.27;;
14736;SDS011;7459;53.590;10.062;2022-09-19T07:50:24;8.27;;;1.30;;
14736;SDS011;7459;53.590;10.062;2022-09-19T07:53:00;12.38;;;1.20;;
14736;SDS011;7459;53.590;10.062;2022-09-19T07:55:29;15.73;;;1.97;;
14736;SDS011;7459;53.590;10.062;2022-09-19T07:57:56;12.98;;;2.08;;
14736;SDS011;7459;53.590;10.062;2022-09-19T08:00:24;9.43;;;1.50;;
14736;SDS011;7459;53.590;10.062;2022-09-19T08:03:01;16.73;;;1.95;;
14736;SDS011;7459;53.590;10.062;2022-09-19T08:05:33;14.07;;;1.33;;
14736;SDS011;7459;53.590;10.062;2022-09-19T08:08:03;12.97;;;1.63;;
14736;SDS011;7459;53.590;10.062;2022-09-19T08:10:30;14.45;;;1.33;;
14736;SDS011;7459;53.590;10.062;2022-09-19T08:13:00;12.68;;;1.58;;
14736;SDS011;7459;53.590;10.062;2022-09-19T08:15:27;7.88;;;2.22;;
14736;SDS011;7459;53.590;10.062;2022-09-19T08:20:22;13.40;;;1.57;;
14736;SDS011;7459;53.590;10.062;2022-09-19T08:22:48;13.07;;;2.58;;
14736;SDS011;7459;53.590;10.062;2022-09-19T08:25:14;18.20;;;1.73;;
14736;SDS011;7459;53.590;10.062;2022-09-19T08:27:44;13.15;;;1.35;;
14736;SDS011;7459;53.590;10.062;2022-09-19T08:30:10;15.05;;;1.65;;
14736;SDS011;7459;53.590;10.062;2022-09-19T08:32:36;10.43;;;2.10;;
14736;SDS011;7459;53.590;10.062;2022-09-19T08:35:01;18.52;;;1.73;;
14736;SDS011;7459;53.590;10.062;2022-09-19T08:37:28;11.35;;;2.17;;
14736;SDS011;7459;53.590;10.062;2022-09-19T08:39:55;14.50;;;1.73;;
14736;SDS011;7459;53.590;10.062;2022-09-19T08:43:00;11.43;;;1.00;;
14736;SDS011;7459;53.590;10.062;2022-09-19T08:54:30;9.57;;;2.43;;
14736;SDS011;7459;53.590;10.062;2022-09-19T08:57:01;10.43;;;1.58;;
14736;SDS011;7459;53.590;10.062;2022-09-19T08:59:31;14.80;;;1.77;;
14736;SDS011;7459;53.590;10.062;2022-09-19T09:02:04;8.98;;;1.05;;
14736;SDS011;7459;53.590;10.062;2022-09-19T09:04:50;11.93;;;1.27;;
14736;SDS011;7459;53.590;10.062;2022-09-19T09:07:19;8.83;;;1.00;;
14736;SDS011;7459;53.590;10.062;2022-09-19T09:10:02;5.50;;;0.70;;
14736;SDS011;7459;53.590;10.062;2022-09-19T09:12:49;8.10;;;0.90;;
14736;SDS011;7459;53.590;10.062;2022-09-19T09:24:34;6.87;;;0.60;;
14736;SDS011;7459;53.590;10.062;2022-09-19T09:27:09;6.85;;;0.90;;
14736;SDS011;7459;53.590;10.062;2022-09-19T09:29:41;8.90;;;1.00;;
14736;SDS011;7459;53.590;10.062;2022-09-19T09:32:28;6.78;;;0.50;;
14736;SDS011;7459;53.590;10.062;2022-09-19T09:35:02;7.72;;;1.13;;
14736;SDS011;7459;53.590;10.062;2022-09-19T09:37:39;9.30;;;0.57;;
14736;SDS011;7459;53.590;10.062;2022-09-19T09:43:29;8.88;;;1.20;;
14736;SDS011;7459;53.590;10.062;2022-09-19T09:46:10;13.88;;;1.33;;
14736;SDS011;7459;53.590;10.062;2022-09-19T09:48:43;7.47;;;1.17;;
14736;SDS011;7459;53.590;10.062;2022-09-19T09:51:19;10.40;;;1.43;;
14736;SDS011;7459;53.590;10.062;2022-09-19T09:54:46;8.30;;;0.68;;
14736;SDS011;7459;53.590;10.062;2022-09-19T10:00:11;7.43;;;0.90;;
14736;SDS011;7459;53.590;10.062;2022-09-19T10:06:11;4.90;;;0.43;;
14736;SDS011;7459;53.590;10.062;2022-09-19T10:08:46;5.97;;;1.15;;
14736;SDS011;7459;53.590;10.062;2022-09-19T10:14:31;5.47;;;0.55;;
14736;SDS011;7459;53.590;10.062;2022-09-19T10:17:01;5.82;;;0.98;;
14736;SDS011;7459;53.590;10.062;2022-09-19T10:22:09;4.85;;;0.77;;
14736;SDS011;7459;53.590;10.062;2022-09-19T10:27:19;7.25;;;0.65;;
14736;SDS011;7459;53.590;10.062;2022-09-19T10:32:16;6.53;;;0.67;;
14736;SDS011;7459;53.590;10.062;2022-09-19T10:34:44;3.83;;;0.77;;
14736;SDS011;7459;53.590;10.062;2022-09-19T10:37:13;8.73;;;0.80;;
14736;SDS011;7459;53.590;10.062;2022-09-19T10:39:43;11.93;;;0.93;;
14736;SDS011;7459;53.590;10.062;2022-09-19T10:42:21;8.05;;;0.82;;
14736;SDS011;7459;53.590;10.062;2022-09-19T10:45:27;6.53;;;1.43;;
14736;SDS011;7459;53.590;10.062;2022-09-19T10:47:59;7.10;;;1.42;;
14736;SDS011;7459;53.590;10.062;2022-09-19T10:50:40;4.60;;;0.50;;
14736;SDS011;7459;53.590;10.062;2022-09-19T10:53:18;3.72;;;0.40;;
14736;SDS011;7459;53.590;10.062;2022-09-19T10:55:58;7.32;;;0.50;;
14736;SDS011;7459;53.590;10.062;2022-09-19T10:58:28;4.83;;;0.30;;
14736;SDS011;7459;53.590;10.062;2022-09-19T11:01:00;4.57;;;0.30;;
14736;SDS011;7459;53.590;10.062;2022-09-19T11:03:32;5.28;;;0.68;;
14736;SDS011;7459;53.590;10.062;2022-09-19T11:06:16;4.18;;;0.28;;
14736;SDS011;7459;53.590;10.062;2022-09-19T11:08:43;3.85;;;0.20;;
14736;SDS011;7459;53.590;10.062;2022-09-19T11:11:27;4.07;;;0.50;;
14736;SDS011;7459;53.590;10.062;2022-09-19T11:22:53;5.65;;;0.90;;
14736;SDS011;7459;53.590;10.062;2022-09-19T11:25:56;3.43;;;0.20;;
14736;SDS011;7459;53.590;10.062;2022-09-19T11:37:45;5.03;;;0.57;;
14736;SDS011;7459;53.590;10.062;2022-09-19T12:00:25;2.30;;;0.52;;
14736;SDS011;7459;53.590;10.062;2022-09-19T12:03:05;6.20;;;0.28;;
14736;SDS011;7459;53.590;10.062;2022-09-19T12:10:55;3.53;;;0.70;;
14736;SDS011;7459;53.590;10.062;2022-09-19T12:16:10;4.72;;;0.90;;
14736;SDS011;7459;53.590;10.062;2022-09-19T12:18:45;5.05;;;0.88;;
14736;SDS011;7459;53.590;10.062;2022-09-19T12:21:29;1.97;;;0.63;;
14736;SDS011;7459;53.590;10.062;2022-09-19T12:24:33;4.25;;;0.57;;
14736;SDS011;7459;53.590;10.062;2022-09-19T12:35:16;2.93;;;0.40;;
14736;SDS011;7459;53.590;10.062;2022-09-19T12:38:32;2.40;;;0.45;;
14736;SDS011;7459;53.590;10.062;2022-09-19T12:47:17;3.00;;;0.45;;
14736;SDS011;7459;53.590;10.062;2022-09-19T13:07:15;4.85;;;0.70;;
14736;SDS011;7459;53.590;10.062;2022-09-19T13:09:57;4.53;;;0.55;;
14736;SDS011;7459;53.590;10.062;2022-09-19T13:12:51;4.22;;;0.60;;
14736;SDS011;7459;53.590;10.062;2022-09-19T13:18:17;4.67;;;0.53;;
14736;SDS011;7459;53.590;10.062;2022-09-19T13:21:03;5.68;;;0.35;;
14736;SDS011;7459;53.590;10.062;2022-09-19T13:23:55;5.20;;;0.68;;
14736;SDS011;7459;53.590;10.062;2022-09-19T13:26:29;5.32;;;0.57;;
14736;SDS011;7459;53.590;10.062;2022-09-19T13:29:00;4.40;;;0.75;;
14736;SDS011;7459;53.590;10.062;2022-09-19T13:31:55;4.17;;;0.60;;
14736;SDS011;7459;53.590;10.062;2022-09-19T13:37:45;6.47;;;0.68;;
14736;SDS011;7459;53.590;10.062;2022-09-19T13:42:50;3.85;;;0.90;;
14736;SDS011;7459;53.590;10.062;2022-09-19T13:45:34;5.47;;;0.47;;
14736;SDS011;7459;53.590;10.062;2022-09-19T13:59:32;4.00;;;0.47;;
14736;SDS011;7459;53.590;10.062;2022-09-19T14:02:21;2.78;;;0.57;;
14736;SDS011;7459;53.590;10.062;2022-09-19T14:10:20;4.05;;;0.95;;
14736;SDS011;7459;53.590;10.062;2022-09-19T14:21:02;6.47;;;0.60;;
14736;SDS011;7459;53.590;10.062;2022-09-19T14:23:34;4.35;;;0.80;;
14736;SDS011;7459;53.590;10.062;2022-09-19T14:31:53;3.10;;;1.00;;
14736;SDS011;7459;53.590;10.062;2022-09-19T14:37:35;3.35;;;0.70;;
14736;SDS011;7459;53.590;10.062;2022-09-19T14:40:21;1.27;;;0.47;;
14736;SDS011;7459;53.590;10.062;2022-09-19T14:43:19;2.03;;;0.40;;
14736;SDS011;7459;53.590;10.062;2022-09-19T14:48:43;2.72;;;0.25;;
14736;SDS011;7459;53.590;10.062;2022-09-19T14:52:04;3.05;;;0.80;;
14736;SDS011;7459;53.590;10.062;2022-09-19T14:54:43;5.97;;;0.43;;
14736;SDS011;7459;53.590;10.062;2022-09-19T14:57:22;4.07;;;0.40;;
14736;SDS011;7459;53.590;10.062;2022-09-19T14:59:49;1.13;;;0.50;;
14736;SDS011;7459;53.590;10.062;2022-09-19T15:02:30;4.30;;;0.68;;
14736;SDS011;7459;53.590;10.062;2022-09-19T15:05:05;1.23;;;0.57;;
14736;SDS011;7459;53.590;10.062;2022-09-19T15:07:55;3.33;;;0.50;;
14736;SDS011;7459;53.590;10.062;2022-09-19T15:13:09;2.40;;;0.28;;
14736;SDS011;7459;53.590;10.062;2022-09-19T15:15:40;3.30;;;0.73;;
14736;SDS011;7459;53.590;10.062;2022-09-19T15:18:24;2.10;;;0.32;;
14736;SDS011;7459;53.590;10.062;2022-09-19T15:21:01;2.37;;;0.70;;
14736;SDS011;7459;53.590;10.062;2022-09-19T15:23:29;2.55;;;0.40;;
14736;SDS011;7459;53.590;10.062;2022-09-19T15:26:00;1.83;;;0.30;;
14736;SDS011;7459;53.590;10.062;2022-09-19T15:28:29;1.02;;;0.25;;
14736;SDS011;7459;53.590;10.062;2022-09-19T15:31:03;2.25;;;0.85;;
14736;SDS011;7459;53.590;10.062;2022-09-19T15:33:42;2.50;;;0.30;;
14736;SDS011;7459;53.590;10.062;2022-09-19T15:36:13;3.95;;;0.22;;
14736;SDS011;7459;53.590;10.062;2022-09-19T15:38:42;1.35;;;1.05;;
14736;SDS011;7459;53.590;10.062;2022-09-19T15:41:08;1.02;;;0.30;;
14736;SDS011;7459;53.590;10.062;2022-09-19T15:43:42;4.13;;;0.65;;
14736;SDS011;7459;53.590;10.062;2022-09-19T15:48:48;1.45;;;0.73;;
14736;SDS011;7459;53.590;10.062;2022-09-19T15:51:28;4.13;;;0.63;;
14736;SDS011;7459;53.590;10.062;2022-09-19T15:53:57;1.55;;;0.20;;
14736;SDS011;7459;53.590;10.062;2022-09-19T15:56:28;4.55;;;0.45;;
14736;SDS011;7459;53.590;10.062;2022-09-19T15:59:21;4.60;;;1.03;;
14736;SDS011;7459;53.590;10.062;2022-09-19T16:01:58;3.35;;;0.52;;
14736;SDS011;7459;53.590;10.062;2022-09-19T16:04:35;3.22;;;0.47;;
14736;SDS011;7459;53.590;10.062;2022-09-19T16:07:11;7.65;;;0.75;;
14736;SDS011;7459;53.590;10.062;2022-09-19T16:12:41;3.77;;;0.43;;
14736;SDS011;7459;53.590;10.062;2022-09-19T16:22:59;8.13;;;1.05;;
14736;SDS011;7459;53.590;10.062;2022-09-19T16:28:34;6.05;;;0.60;;
14736;SDS011;7459;53.590;10.062;2022-09-19T16:34:00;4.43;;;0.93;;
14736;SDS011;7459;53.590;10.062;2022-09-19T16:36:30;2.97;;;0.20;;
14736;SDS011;7459;53.590;10.062;2022-09-19T16:44:26;3.65;;;0.35;;
14736;SDS011;7459;53.590;10.062;2022-09-19T16:47:16;1.93;;;0.33;;
14736;SDS011;7459;53.590;10.062;2022-09-19T16:49:49;1.30;;;0.28;;
14736;SDS011;7459;53.590;10.062;2022-09-19T16:52:27;4.85;;;0.65;;
14736;SDS011;7459;53.590;10.062;2022-09-19T16:54:59;1.33;;;0.30;;
14736;SDS011;7459;53.590;10.062;2022-09-19T16:57:28;2.53;;;0.60;;
14736;SDS011;7459;53.590;10.062;2022-09-19T16:59:55;1.00;;;0.10;;
14736;SDS011;7459;53.590;10.062;2022-09-19T17:02:28;3.20;;;0.52;;
14736;SDS011;7459;53.590;10.062;2022-09-19T17:05:00;4.25;;;0.77;;
14736;SDS011;7459;53.590;10.062;2022-09-19T17:07:32;3.35;;;0.70;;
14736;SDS011;7459;53.590;10.062;2022-09-19T17:09:57;1.43;;;0.50;;
14736;SDS011;7459;53.590;10.062;2022-09-19T17:12:23;3.70;;;0.52;;
14736;SDS011;7459;53.590;10.062;2022-09-19T17:14:49;2.97;;;0.63;;
14736;SDS011;7459;53.590;10.062;2022-09-19T17:17:15;3.80;;;0.90;;
14736;SDS011;7459;53.590;10.062;2022-09-19T17:19:42;3.58;;;0.75;;
14736;SDS011;7459;53.590;10.062;2022-09-19T17:22:18;3.70;;;0.63;;
14736;SDS011;7459;53.590;10.062;2022-09-19T17:24:44;5.85;;;1.45;;
14736;SDS011;7459;53.590;10.062;2022-09-19T17:27:11;2.30;;;0.45;;
14736;SDS011;7459;53.590;10.062;2022-09-19T17:29:38;4.10;;;0.70;;
14736;SDS011;7459;53.590;10.062;2022-09-19T17:32:06;2.97;;;0.82;;
14736;SDS011;7459;53.590;10.062;2022-09-19T17:34:35;3.88;;;0.60;;
14736;SDS011;7459;53.590;10.062;2022-09-19T17:37:01;4.17;;;1.00;;
14736;SDS011;7459;53.590;10.062;2022-09-19T17:39:26;3.17;;;0.95;;
14736;SDS011;7459;53.590;10.062;2022-09-19T17:41:52;3.17;;;1.03;;
14736;SDS011;7459;53.590;10.062;2022-09-19T17:44:17;5.07;;;0.75;;
14736;SDS011;7459;53.590;10.062;2022-09-19T17:46:43;3.80;;;1.63;;
14736;SDS011;7459;53.590;10.062;2022-09-19T17:49:09;3.47;;;0.60;;
14736;SDS011;7459;53.590;10.062;2022-09-19T17:51:35;4.10;;;0.88;;
14736;SDS011;7459;53.590;10.062;2022-09-19T17:54:01;3.87;;;1.33;;
14736;SDS011;7459;53.590;10.062;2022-09-19T17:56:27;2.03;;;0.77;;
14736;SDS011;7459;53.590;10.062;2022-09-19T17:58:54;3.55;;;0.85;;
14736;SDS011;7459;53.590;10.062;2022-09-19T18:01:25;2.40;;;0.50;;
14736;SDS011;7459;53.590;10.062;2022-09-19T18:04:11;3.20;;;0.73;;
14736;SDS011;7459;53.590;10.062;2022-09-19T18:06:37;3.88;;;1.13;;
14736;SDS011;7459;53.590;10.062;2022-09-19T18:09:05;4.38;;;1.00;;
14736;SDS011;7459;53.590;10.062;2022-09-19T18:11:34;9.10;;;1.42;;
14736;SDS011;7459;53.590;10.062;2022-09-19T18:14:01;8.37;;;1.20;;
14736;SDS011;7459;53.590;10.062;2022-09-19T18:16:29;6.32;;;1.23;;
14736;SDS011;7459;53.590;10.062;2022-09-19T18:18:56;4.15;;;1.08;;
14736;SDS011;7459;53.590;10.062;2022-09-19T18:21:24;3.63;;;0.68;;
14736;SDS011;7459;53.590;10.062;2022-09-19T18:23:50;3.95;;;0.73;;
14736;SDS011;7459;53.590;10.062;2022-09-19T18:26:19;5.67;;;0.80;;
14736;SDS011;7459;53.590;10.062;2022-09-19T18:28:46;4.20;;;1.00;;
14736;SDS011;7459;53.590;10.062;2022-09-19T18:31:18;4.35;;;0.90;;
14736;SDS011;7459;53.590;10.062;2022-09-19T18:33:45;3.97;;;0.88;;
14736;SDS011;7459;53.590;10.062;2022-09-19T18:36:12;5.23;;;0.83;;
14736;SDS011;7459;53.590;10.062;2022-09-19T18:38:42;5.65;;;1.40;;
14736;SDS011;7459;53.590;10.062;2022-09-19T18:41:09;5.00;;;1.15;;
14736;SDS011;7459;53.590;10.062;2022-09-19T18:43:36;4.70;;;0.75;;
14736;SDS011;7459;53.590;10.062;2022-09-19T18:46:03;4.88;;;0.98;;
14736;SDS011;7459;53.590;10.062;2022-09-19T18:48:38;4.03;;;1.03;;
14736;SDS011;7459;53.590;10.062;2022-09-19T18:51:08;3.67;;;1.00;;
14736;SDS011;7459;53.590;10.062;2022-09-19T18:53:37;2.85;;;0.63;;
14736;SDS011;7459;53.590;10.062;2022-09-19T18:56:07;5.40;;;0.65;;
14736;SDS011;7459;53.590;10.062;2022-09-19T18:58:35;3.72;;;1.17;;
14736;SDS011;7459;53.590;10.062;2022-09-19T19:03:32;3.13;;;0.40;;